Time;durP1;ratioP1;P1;durP2;ratioP2;P2;SDS_P1;SDS_P2;PMS_P1;PMS_P2;Temp;Humidity;BMP_temperature;BMP_pressure;BME280_temperature;BME280_humidity;BME280_pressure;Samples;Min_cycle;Max_cycle;Signal;HPM_P1;HPM_P2
2022/03/06 00:00:40;;;;;;;29.75;16.85;;;-0.10;99.90;;;;;;6120703;23;20013;-86
2022/03/06 00:03:06;;;;;;;28.02;17.17;;;-0.10;99.90;;;;;;6116417;23;20013;-87
2022/03/06 00:05:33;;;;;;;28.00;17.30;;;-0.10;99.90;;;;;;6119669;23;20059;-87
2022/03/06 00:07:59;;;;;;;27.55;17.13;;;-0.10;99.90;;;;;;6121301;23;20476;-87
2022/03/06 00:10:26;;;;;;;26.38;16.63;;;-0.10;99.90;;;;;;6095280;23;20017;-86
2022/03/06 00:12:54;;;;;;;28.73;17.23;;;-0.20;99.90;;;;;;6120965;23;20016;-86
2022/03/06 00:15:21;;;;;;;28.60;17.38;;;-0.20;99.90;;;;;;6117559;23;20699;-86
2022/03/06 00:17:48;;;;;;;32.33;18.58;;;-0.20;99.90;;;;;;6119711;23;20020;-86
2022/03/06 00:20:13;;;;;;;25.85;16.98;;;-0.20;99.90;;;;;;6143239;23;20013;-86
2022/03/06 00:22:39;;;;;;;30.73;17.70;;;-0.20;99.90;;;;;;6144099;23;20023;-87
2022/03/06 00:25:06;;;;;;;27.77;17.08;;;-0.20;99.90;;;;;;6140226;23;20083;-86
2022/03/06 00:27:31;;;;;;;31.80;16.73;;;-0.20;99.90;;;;;;6116218;23;20540;-86
2022/03/06 00:29:57;;;;;;;26.90;16.95;;;-0.20;99.90;;;;;;6120449;23;20013;-86
2022/03/06 00:32:23;;;;;;;26.80;17.60;;;-0.30;99.90;;;;;;6122276;23;20051;-86
2022/03/06 00:34:49;;;;;;;27.90;17.05;;;-0.20;99.90;;;;;;6122747;23;20013;-86
2022/03/06 00:37:16;;;;;;;27.67;16.38;;;-0.20;99.90;;;;;;6120099;23;20013;-86
2022/03/06 00:39:43;;;;;;;25.98;15.75;;;-0.20;99.90;;;;;;6122117;23;20021;-86
2022/03/06 00:42:09;;;;;;;30.60;16.25;;;-0.20;99.90;;;;;;6121919;23;20036;-86
2022/03/06 00:44:35;;;;;;;26.20;16.65;;;-0.10;99.90;;;;;;6126815;23;20021;-86
2022/03/06 00:47:01;;;;;;;25.85;16.08;;;-0.20;99.90;;;;;;6123802;23;20044;-87
2022/03/06 00:49:27;;;;;;;30.58;17.05;;;-0.10;99.90;;;;;;6123536;23;20009;-87
2022/03/06 00:51:53;;;;;;;28.13;17.17;;;-0.10;99.90;;;;;;6098222;23;20014;-86
2022/03/06 00:54:19;;;;;;;28.60;16.60;;;-0.10;99.90;;;;;;6148101;23;20013;-87
2022/03/06 00:56:46;;;;;;;26.33;16.42;;;-0.20;99.90;;;;;;6098967;23;20016;-86
2022/03/06 00:59:12;;;;;;;31.60;16.58;;;-0.10;99.90;;;;;;6122935;23;20059;-86
2022/03/06 01:01:38;;;;;;;27.50;16.52;;;-0.10;99.90;;;;;;6146774;23;20025;-87
2022/03/06 01:04:04;;;;;;;26.13;16.90;;;-0.10;99.90;;;;;;6100180;23;20021;-86
2022/03/06 01:06:30;;;;;;;25.20;15.30;;;-0.10;99.90;;;;;;6066053;23;20095;-85
2022/03/06 01:08:56;;;;;;;27.80;16.95;;;-0.10;99.90;;;;;;6066634;23;20473;-86
2022/03/06 01:11:22;;;;;;;22.75;15.27;;;-0.10;99.90;;;;;;6092735;23;20017;-87
2022/03/06 01:13:48;;;;;;;27.50;16.35;;;-0.10;99.90;;;;;;6091695;23;20443;-86
2022/03/06 01:16:14;;;;;;;28.90;16.05;;;-0.10;99.90;;;;;;6090884;23;20616;-86
2022/03/06 01:18:40;;;;;;;25.33;16.00;;;-0.20;99.90;;;;;;6091021;23;20025;-87
2022/03/06 01:21:06;;;;;;;25.02;15.38;;;-0.10;99.90;;;;;;6115223;23;20402;-86
2022/03/06 01:23:32;;;;;;;26.50;16.08;;;-0.10;99.90;;;;;;6088186;23;20332;-86
2022/03/06 01:25:57;;;;;;;24.13;14.90;;;-0.10;99.90;;;;;;6094016;23;20100;-86
2022/03/06 01:28:23;;;;;;;24.48;15.07;;;-0.10;99.90;;;;;;6064945;23;20076;-86
2022/03/06 01:30:49;;;;;;;25.85;14.95;;;-0.10;99.90;;;;;;6086945;23;20017;-87
2022/03/06 01:33:15;;;;;;;25.98;16.00;;;-0.10;99.90;;;;;;6061558;23;20357;-87
2022/03/06 01:35:41;;;;;;;27.27;16.30;;;-0.10;99.90;;;;;;6086672;23;20278;-87
2022/03/06 01:38:07;;;;;;;22.85;14.40;;;-0.10;99.90;;;;;;6086046;23;20009;-86
2022/03/06 01:40:33;;;;;;;25.70;14.55;;;-0.10;99.90;;;;;;6087889;23;20021;-88
2022/03/06 01:42:58;;;;;;;26.70;15.00;;;-0.10;99.90;;;;;;6089327;23;20817;-87
2022/03/06 01:45:24;;;;;;;22.98;15.23;;;0.00;99.90;;;;;;6086135;23;20344;-87
2022/03/06 01:47:54;;;;;;;25.80;15.25;;;-0.10;99.90;;;;;;6086585;23;20021;-87
2022/03/06 01:50:27;;;;;;;25.58;15.10;;;0.10;99.90;;;;;;6090153;23;20014;-87
2022/03/06 01:52:55;;;;;;;25.00;14.68;;;-0.10;99.90;;;;;;6088433;23;20018;-87
2022/03/06 01:55:24;;;;;;;28.80;15.77;;;-0.10;99.90;;;;;;6096493;23;20014;-89
2022/03/06 01:57:52;;;;;;;24.55;15.38;;;0.00;99.90;;;;;;6093048;23;20048;-89
2022/03/06 02:00:26;;;;;;;20.90;14.02;;;0.00;99.90;;;;;;6092204;23;20028;-89
2022/03/06 02:02:53;;;;;;;23.05;14.35;;;0.00;99.90;;;;;;6091088;23;20122;-89
2022/03/06 02:05:19;;;;;;;21.08;12.90;;;0.10;99.90;;;;;;6089907;23;20013;-90
2022/03/06 02:07:45;;;;;;;23.13;13.32;;;0.10;99.90;;;;;;6092032;23;20312;-90
2022/03/06 02:10:14;;;;;;;22.90;13.63;;;0.10;99.90;;;;;;6090417;23;20052;-89
2022/03/06 02:12:40;;;;;;;23.10;13.77;;;0.10;99.90;;;;;;6092941;23;20747;-89
2022/03/06 02:15:09;;;;;;;20.33;13.32;;;0.10;99.90;;;;;;6091015;23;20089;-90
2022/03/06 02:17:37;;;;;;;22.90;13.68;;;0.10;99.90;;;;;;6093083;23;20014;-89
2022/03/06 02:20:06;;;;;;;26.13;12.82;;;0.20;99.90;;;;;;6090772;23;20065;-89
2022/03/06 02:22:35;;;;;;;24.08;12.35;;;0.20;99.90;;;;;;6113601;23;20299;-89
2022/03/06 02:25:07;;;;;;;18.00;12.13;;;0.20;99.90;;;;;;6092122;23;20017;-89
2022/03/06 02:27:33;;;;;;;;;;;0.20;99.90;;;;;;6092355;23;20048;-89
2022/03/06 02:29:59;;;;;;;18.77;11.13;;;0.20;99.90;;;;;;6093641;23;19919;-88
2022/03/06 02:32:25;;;;;;;19.88;11.75;;;0.20;99.90;;;;;;6096804;23;20018;-89
2022/03/06 02:34:52;;;;;;;19.02;11.90;;;0.20;99.90;;;;;;6095605;23;20017;-89
2022/03/06 02:37:20;;;;;;;19.85;11.85;;;0.20;99.90;;;;;;6096170;23;20024;-90
2022/03/06 02:39:47;;;;;;;19.45;11.80;;;0.20;99.90;;;;;;6095053;23;20092;-89
2022/03/06 02:42:24;;;;;;;17.95;11.27;;;0.30;99.90;;;;;;6096349;23;20022;-90
2022/03/06 02:44:51;;;;;;;21.38;10.43;;;0.30;99.90;;;;;;6094944;23;20100;-89
2022/03/06 02:47:17;;;;;;;20.90;12.05;;;0.30;99.90;;;;;;6096279;23;20092;-91
2022/03/06 02:49:43;;;;;;;18.67;11.23;;;0.30;99.90;;;;;;6095499;23;20013;-88
2022/03/06 02:52:09;;;;;;;19.17;10.95;;;0.30;99.90;;;;;;6094761;23;20028;-90
2022/03/06 02:54:36;;;;;;;15.68;10.63;;;0.40;99.90;;;;;;6094300;23;20305;-90
2022/03/06 02:57:06;;;;;;;17.73;10.23;;;0.40;99.90;;;;;;6095807;23;20107;-89
2022/03/06 02:59:33;;;;;;;19.00;10.95;;;0.40;99.90;;;;;;6097149;23;20104;-90
2022/03/06 03:01:58;;;;;;;17.38;10.80;;;0.40;99.90;;;;;;6095867;23;20013;-90
2022/03/06 03:04:24;;;;;;;18.55;10.73;;;0.40;99.90;;;;;;6118855;23;20717;-89
2022/03/06 03:06:51;;;;;;;18.02;10.75;;;0.40;99.90;;;;;;6129719;23;20017;-90
2022/03/06 03:09:20;;;;;;;16.17;10.30;;;0.40;99.90;;;;;;6125664;23;20019;-90
2022/03/06 03:11:47;;;;;;;15.10;9.85;;;0.40;99.90;;;;;;6149781;23;20024;-89
2022/03/06 03:14:14;;;;;;;20.40;10.52;;;0.40;99.90;;;;;;6124213;23;20279;-89
2022/03/06 03:16:40;;;;;;;19.48;12.38;;;0.30;99.90;;;;;;6125265;23;20142;-90
2022/03/06 03:19:06;;;;;;;18.10;10.52;;;0.30;99.90;;;;;;6122308;23;20020;-90
2022/03/06 03:21:32;;;;;;;16.75;10.60;;;0.40;99.90;;;;;;6123473;23;20468;-90
2022/03/06 03:23:58;;;;;;;18.08;10.18;;;0.30;99.90;;;;;;6124112;23;20017;-90
2022/03/06 03:26:24;;;;;;;16.27;9.68;;;0.30;99.90;;;;;;6122509;23;20017;-90
2022/03/06 03:28:50;;;;;;;17.63;10.27;;;0.30;99.90;;;;;;6098221;23;20111;-90
2022/03/06 03:31:17;;;;;;;19.23;11.10;;;0.30;99.90;;;;;;6122936;23;20055;-90
2022/03/06 03:33:44;;;;;;;17.23;9.77;;;0.20;99.90;;;;;;6122975;23;20454;-89
2022/03/06 03:36:10;;;;;;;16.77;10.25;;;0.20;99.90;;;;;;6123219;23;20013;-89
2022/03/06 03:38:40;;;;;;;13.25;9.50;;;0.20;99.90;;;;;;6123684;23;20169;-90
2022/03/06 03:41:09;;;;;;;16.58;9.90;;;0.20;99.90;;;;;;6123318;23;20096;-89
2022/03/06 03:43:35;;;;;;;14.80;9.50;;;0.30;99.90;;;;;;6129105;23;20021;-90
2022/03/06 03:46:01;;;;;;;16.35;9.63;;;0.30;99.90;;;;;;6126901;23;20052;-89
2022/03/06 03:48:29;;;;;;;16.38;10.70;;;0.30;99.90;;;;;;6127666;23;20021;-89
2022/03/06 03:50:56;;;;;;;19.92;9.95;;;0.20;99.90;;;;;;6129650;23;20044;-90
2022/03/06 03:53:22;;;;;;;14.60;9.63;;;0.20;99.90;;;;;;6130038;23;20012;-90
2022/03/06 03:55:49;;;;;;;17.52;10.45;;;0.30;99.90;;;;;;6125622;23;20013;-90
2022/03/06 03:58:15;;;;;;;16.42;10.93;;;0.20;99.90;;;;;;6126465;23;20013;-89
2022/03/06 04:00:45;;;;;;;14.75;9.98;;;0.20;99.90;;;;;;6124315;23;20515;-90
2022/03/06 04:03:13;;;;;;;17.13;10.30;;;0.20;99.90;;;;;;6115936;23;20128;-89
2022/03/06 04:05:39;;;;;;;15.45;9.38;;;0.20;99.90;;;;;;6094883;23;20021;-89
2022/03/06 04:08:06;;;;;;;15.25;9.50;;;0.20;99.90;;;;;;6093783;23;20022;-89
2022/03/06 04:10:32;;;;;;;16.70;9.10;;;0.20;99.90;;;;;;6095880;23;20386;-90
2022/03/06 04:12:58;;;;;;;15.23;9.43;;;0.20;99.90;;;;;;6093039;23;20076;-90
2022/03/06 04:15:23;;;;;;;15.27;9.20;;;0.20;99.90;;;;;;6069047;23;20386;-89
2022/03/06 04:17:49;;;;;;;19.58;9.55;;;0.20;99.90;;;;;;6073001;23;20013;-89
2022/03/06 04:20:15;;;;;;;14.82;8.57;;;0.10;99.90;;;;;;6095283;23;20462;-88
2022/03/06 04:22:41;;;;;;;13.57;8.90;;;0.10;99.90;;;;;;6093949;23;20017;-89
2022/03/06 04:25:07;;;;;;;14.68;8.90;;;0.10;99.90;;;;;;6092825;23;20078;-90
2022/03/06 04:27:33;;;;;;;15.95;8.75;;;0.10;99.90;;;;;;6095437;23;20135;-89
2022/03/06 04:29:58;;;;;;;14.10;8.82;;;0.10;99.90;;;;;;6096548;23;20053;-91
2022/03/06 04:32:24;;;;;;;18.05;8.40;;;0.10;99.90;;;;;;6076890;23;20005;-89
2022/03/06 04:34:51;;;;;;;17.00;8.60;;;0.10;99.90;;;;;;6099128;23;20024;-89
2022/03/06 04:37:17;;;;;;;12.07;8.38;;;0.10;99.90;;;;;;6100872;23;20056;-88
2022/03/06 04:39:42;;;;;;;12.00;8.35;;;0.10;99.90;;;;;;6098696;23;20017;-89
2022/03/06 04:42:09;;;;;;;14.05;7.78;;;0.00;99.90;;;;;;6099541;23;20290;-90
2022/03/06 04:44:34;;;;;;;13.23;8.07;;;0.00;99.90;;;;;;6100849;23;20021;-90
2022/03/06 04:47:00;;;;;;;18.73;8.57;;;0.00;99.90;;;;;;6075015;23;20318;-89
2022/03/06 04:49:26;;;;;;;14.52;7.95;;;0.00;99.90;;;;;;6102133;23;20013;-89
2022/03/06 04:51:52;;;;;;;12.85;7.97;;;0.00;99.90;;;;;;6098755;23;20486;-91
2022/03/06 04:54:20;;;;;;;14.30;7.93;;;0.00;99.90;;;;;;6100682;23;20201;-89
2022/03/06 04:56:47;;;;;;;12.55;7.55;;;0.00;99.90;;;;;;6075033;23;20017;-90
2022/03/06 04:59:13;;;;;;;11.38;7.70;;;0.00;99.90;;;;;;6095957;23;20013;-89
2022/03/06 05:01:39;;;;;;;15.48;7.40;;;-0.10;99.90;;;;;;6076710;23;20439;-89
2022/03/06 05:04:04;;;;;;;16.92;7.88;;;0.00;99.90;;;;;;6125745;23;20235;-90
2022/03/06 05:06:30;;;;;;;12.90;7.28;;;0.00;99.90;;;;;;6127369;23;20346;-90
2022/03/06 05:08:56;;;;;;;12.57;7.40;;;0.10;99.90;;;;;;6125556;23;20013;-89
2022/03/06 05:11:23;;;;;;;11.88;7.30;;;0.00;99.90;;;;;;6177081;23;20024;-90
2022/03/06 05:13:49;;;;;;;15.02;7.00;;;-0.10;99.90;;;;;;6125246;23;20014;-90
2022/03/06 05:16:15;;;;;;;17.48;7.30;;;-0.10;99.90;;;;;;6174325;23;20071;-90
2022/03/06 05:18:41;;;;;;;10.25;7.35;;;-0.10;99.90;;;;;;6125176;23;20017;-88
2022/03/06 05:21:06;;;;;;;12.35;6.97;;;-0.10;99.90;;;;;;6153547;23;20017;-89
2022/03/06 05:23:32;;;;;;;16.52;7.32;;;-0.10;99.90;;;;;;6121804;23;20022;-88
2022/03/06 05:25:58;;;;;;;11.60;6.95;;;-0.10;99.90;;;;;;6145115;23;20028;-89
2022/03/06 05:28:26;;;;;;;13.20;7.15;;;-0.20;99.90;;;;;;6144809;23;20100;-90
2022/03/06 05:30:51;;;;;;;17.30;7.07;;;-0.10;99.90;;;;;;6171515;23;20013;-90
2022/03/06 05:33:17;;;;;;;12.20;7.28;;;-0.10;99.90;;;;;;6168663;23;20748;-89
2022/03/06 05:35:43;;;;;;;15.55;7.15;;;-0.20;99.90;;;;;;6168188;23;20013;-90
2022/03/06 05:38:09;;;;;;;19.02;6.93;;;-0.20;99.90;;;;;;6169007;23;20014;-89
2022/03/06 05:40:35;;;;;;;14.02;7.97;;;-0.20;99.90;;;;;;6144609;23;20018;-89
2022/03/06 05:43:00;;;;;;;10.77;6.68;;;-0.20;99.90;;;;;;6123194;23;20632;-89
2022/03/06 05:45:26;;;;;;;13.23;7.38;;;-0.20;99.90;;;;;;6172199;23;20022;-89
2022/03/06 05:47:52;;;;;;;14.73;6.78;;;-0.20;99.90;;;;;;6167570;23;20018;-89
2022/03/06 05:50:18;;;;;;;11.25;7.32;;;-0.20;99.90;;;;;;6168899;23;20018;-89
2022/03/06 05:52:44;;;;;;;12.13;6.85;;;-0.20;99.90;;;;;;6123835;23;20048;-90
2022/03/06 05:55:10;;;;;;;10.60;5.93;;;-0.30;99.90;;;;;;6141673;23;20410;-89
2022/03/06 05:57:36;;;;;;;12.50;7.15;;;-0.20;99.90;;;;;;6140584;23;20723;-89
2022/03/06 06:00:08;;;;;;;12.15;6.75;;;-0.20;99.90;;;;;;6167270;23;20018;-89
2022/03/06 06:02:35;;;;;;;14.32;6.88;;;-0.20;99.90;;;;;;6161295;23;20018;-88
2022/03/06 06:05:02;;;;;;;12.00;6.80;;;-0.20;99.90;;;;;;6089859;23;20350;-88
2022/03/06 06:07:28;;;;;;;15.35;6.45;;;-0.20;99.90;;;;;;6091767;23;20729;-90
2022/03/06 06:09:54;;;;;;;12.07;6.97;;;-0.20;99.90;;;;;;6060695;23;20014;-89
2022/03/06 06:12:20;;;;;;;13.80;6.68;;;-0.20;99.90;;;;;;6071712;23;20018;-90
2022/03/06 06:14:46;;;;;;;10.45;6.53;;;-0.20;99.90;;;;;;6095134;23;20097;-90
2022/03/06 06:17:13;;;;;;;10.75;6.47;;;-0.30;99.90;;;;;;6096217;23;20021;-90
2022/03/06 06:19:38;;;;;;;16.35;6.63;;;-0.30;99.90;;;;;;6144261;23;20044;-89
2022/03/06 06:22:04;;;;;;;9.73;6.28;;;-0.30;99.90;;;;;;6097703;23;20769;-91
2022/03/06 06:24:30;;;;;;;12.95;6.70;;;-0.30;99.90;;;;;;6094735;23;20455;-92
2022/03/06 06:26:56;;;;;;;8.18;5.53;;;-0.30;99.90;;;;;;6095924;23;20040;-89
2022/03/06 06:29:23;;;;;;;10.27;6.00;;;-0.30;99.90;;;;;;6106957;23;20393;-89
2022/03/06 06:31:50;;;;;;;14.68;6.43;;;-0.30;99.90;;;;;;6108359;23;20035;-90
2022/03/06 06:34:17;;;;;;;13.05;6.20;;;-0.30;99.90;;;;;;6102971;23;20028;-88
2022/03/06 06:36:43;;;;;;;12.75;6.53;;;-0.30;99.90;;;;;;6108768;23;20506;-90
2022/03/06 06:39:12;;;;;;;13.63;6.63;;;-0.20;99.90;;;;;;6103184;23;20044;-90
2022/03/06 06:41:39;;;;;;;9.32;5.75;;;-0.20;99.90;;;;;;6109078;23;20021;-90
2022/03/06 06:44:05;;;;;;;11.30;6.47;;;-0.20;99.90;;;;;;6106182;23;20032;-89
2022/03/06 06:46:32;;;;;;;8.98;5.55;;;-0.20;99.90;;;;;;6107187;23;20334;-91
2022/03/06 06:48:58;;;;;;;11.93;6.55;;;-0.10;99.90;;;;;;6102812;23;20451;-89
2022/03/06 06:51:23;;;;;;;11.40;5.65;;;0.00;99.90;;;;;;6107525;23;20040;-89
2022/03/06 06:53:49;;;;;;;13.88;6.25;;;0.00;99.90;;;;;;6110870;23;20017;-90
2022/03/06 06:56:15;;;;;;;10.80;6.05;;;0.00;99.90;;;;;;6103095;23;20017;-89
2022/03/06 06:58:41;;;;;;;11.75;5.75;;;0.10;99.90;;;;;;6105727;23;20096;-90
2022/03/06 07:01:07;;;;;;;9.52;5.13;;;0.10;99.90;;;;;;6102210;23;20411;-88
2022/03/06 07:03:34;;;;;;;8.70;5.32;;;0.10;99.90;;;;;;6118823;23;20103;-89
2022/03/06 07:05:59;;;;;;;9.55;5.30;;;0.10;99.90;;;;;;6130895;23;20108;-89
2022/03/06 07:08:25;;;;;;;9.82;4.80;;;0.10;99.90;;;;;;6135855;23;20052;-89
2022/03/06 07:10:51;;;;;;;10.70;4.80;;;0.20;99.90;;;;;;6181868;23;20462;-88
2022/03/06 07:13:17;;;;;;;12.50;5.47;;;0.20;99.90;;;;;;6130017;23;20124;-90
2022/03/06 07:15:43;;;;;;;13.93;5.40;;;0.20;99.90;;;;;;6131122;23;20312;-89
2022/03/06 07:18:09;;;;;;;8.20;4.60;;;0.20;99.90;;;;;;6131480;23;20012;-89
2022/03/06 07:20:35;;;;;;;8.45;5.25;;;0.20;99.90;;;;;;6134549;23;20084;-89
2022/03/06 07:23:00;;;;;;;9.40;4.65;;;0.30;99.90;;;;;;6105483;23;20021;-89
2022/03/06 07:25:26;;;;;;;6.90;4.07;;;0.40;99.90;;;;;;6129717;23;20017;-89
2022/03/06 07:27:52;;;;;;;9.27;4.13;;;0.30;99.90;;;;;;6132642;23;20811;-88
2022/03/06 07:30:18;;;;;;;8.38;4.70;;;0.30;99.90;;;;;;6137347;23;20025;-89
2022/03/06 07:32:49;;;;;;;6.13;3.80;;;0.30;99.90;;;;;;6133496;23;20040;-88
2022/03/06 07:35:17;;;;;;;8.73;4.20;;;0.30;99.90;;;;;;6131593;23;20659;-90
2022/03/06 07:37:43;;;;;;;4.07;3.42;;;0.40;99.90;;;;;;6151758;23;20541;-89
2022/03/06 07:40:12;;;;;;;9.27;3.88;;;0.40;99.90;;;;;;6131089;23;20480;-90
2022/03/06 07:42:38;;;;;;;8.68;3.67;;;0.40;99.90;;;;;;6131081;23;20024;-89
2022/03/06 07:45:04;;;;;;;5.95;3.78;;;0.40;99.90;;;;;;6131014;23;20110;-90
2022/03/06 07:47:30;;;;;;;6.90;3.58;;;0.50;99.90;;;;;;6127472;23;20418;-88
2022/03/06 07:49:56;;;;;;;7.30;4.00;;;0.50;99.90;;;;;;6128801;23;20083;-89
2022/03/06 07:52:22;;;;;;;9.63;3.63;;;0.60;99.90;;;;;;6105496;23;20398;-89
2022/03/06 07:54:48;;;;;;;5.88;3.90;;;;;;;;;;6128224;23;20017;-89
2022/03/06 07:57:14;;;;;;;5.32;3.30;;;;;;;;;;6159268;23;20220;-89
2022/03/06 07:59:40;;;;;;;8.18;3.97;;;;;;;;;;6131541;23;20021;-90
2022/03/06 08:02:06;;;;;;;5.93;3.55;;;;;;;;;;6137742;23;20052;-88
2022/03/06 08:04:32;;;;;;;10.07;4.07;;;;;;;;;;6139921;23;20044;-88
2022/03/06 08:06:59;;;;;;;6.32;3.40;;;;;;;;;;6099753;23;20080;-89
2022/03/06 08:09:25;;;;;;;6.00;3.55;;;;;;;;;;6102607;23;20032;-89
2022/03/06 08:11:52;;;;;;;6.00;3.50;;;;;;;;;;6124517;23;20390;-89
2022/03/06 08:14:18;;;;;;;5.38;3.45;;;;;;;;;;6129159;23;20100;-90
2022/03/06 08:16:44;;;;;;;4.82;3.08;;;;;;;;;;6132759;23;20037;-90
2022/03/06 08:19:10;;;;;;;7.72;3.78;;;;;;;;;;6127177;23;20013;-89
2022/03/06 08:21:39;;;;;;;5.43;3.08;;;;;;;;;;6106169;23;20037;-87
2022/03/06 08:24:05;;;;;;;5.55;3.45;;;;;;;;;;6105420;23;20423;-89
2022/03/06 08:26:34;;;;;;;5.25;3.40;;;;;;;;;;6127008;23;20017;-90
2022/03/06 08:29:00;;;;;;;9.43;3.50;;;;;;;;;;6104740;23;20517;-90
2022/03/06 08:31:26;;;;;;;5.75;3.35;;;;;;;;;;6101810;23;20028;-90
2022/03/06 08:33:53;;;;;;;5.15;3.00;;;;;;;;;;6100513;23;20017;-90
2022/03/06 08:36:19;;;;;;;8.98;3.40;;;;;;;;;;6121752;23;20009;-90
2022/03/06 08:38:45;;;;;;;7.57;3.83;;;;;;;;;;6121656;23;20052;-89
2022/03/06 08:41:12;;;;;;;7.25;3.38;;;;;;;;;;6096662;23;20041;-90
2022/03/06 08:43:38;;;;;;;7.50;3.58;;;;;;;;;;6120318;23;20084;-91
2022/03/06 08:46:04;;;;;;;5.78;3.45;;;;;;;;;;6096537;23;20071;-90
2022/03/06 08:48:31;;;;;;;6.00;3.47;;;;;;;;;;6095702;23;20053;-89
2022/03/06 08:50:57;;;;;;;6.13;3.85;;;;;;;;;;6095519;23;20013;-89
2022/03/06 08:53:24;;;;;;;5.35;3.08;;;;;;;;;;6121742;23;20009;-89
2022/03/06 08:55:50;;;;;;;4.57;3.10;;;;;;;;;;6120426;23;20370;-90
2022/03/06 08:58:16;;;;;;;6.20;3.22;;;;;;;;;;6118998;23;20013;-90
2022/03/06 09:00:42;;;;;;;5.85;3.05;;;;;;;;;;6094980;23;20064;-90
2022/03/06 09:03:09;;;;;;;7.03;3.15;;;;;;;;;;6119884;23;20664;-89
2022/03/06 09:05:40;;;;;;;4.28;2.63;;;;;;;;;;6096134;23;20017;-90
2022/03/06 09:08:09;;;;;;;5.30;3.10;;;;;;;;;;6096718;23;20076;-90
2022/03/06 09:10:35;;;;;;;5.85;3.00;;;;;;;;;;6095714;23;20124;-90
2022/03/06 09:13:04;;;;;;;5.15;2.92;;;;;;;;;;6096341;23;20010;-89
2022/03/06 09:15:30;;;;;;;5.57;3.15;;;;;;;;;;6096396;23;20116;-91
2022/03/06 09:17:58;;;;;;;6.93;3.13;;;;;;;;;;6119054;23;20109;-91
2022/03/06 09:20:25;;;;;;;4.90;2.97;;;;;;;;;;6096490;23;20018;-88
2022/03/06 09:22:51;;;;;;;5.72;3.42;;;;;;;;;;6122211;23;20021;-90
2022/03/06 09:25:17;;;;;;;4.28;2.72;;;;;;;;;;6098292;23;20025;-89
2022/03/06 09:27:46;;;;;;;6.55;2.90;;;;;;;;;;6126305;23;20674;-88
2022/03/06 09:30:13;;;;;;;6.13;2.92;;;;;;;;;;6125667;23;20024;-89
2022/03/06 09:32:39;;;;;;;7.15;3.13;;;;;;;;;;6124634;23;20386;-92
2022/03/06 09:35:06;;;;;;;8.05;3.60;;;;;;;;;;6097338;23;20068;-87
2022/03/06 09:37:35;;;;;;;5.50;2.83;;;;;;;;;;6102759;23;20013;-90
2022/03/06 09:40:02;;;;;;;5.20;2.90;;;;;;;;;;6100645;23;20118;-89
2022/03/06 09:45:05;;;;;;;6.65;3.28;;;;;;;;;;6205486;22;20095;-89
2022/03/06 09:47:31;;;;;;;4.35;2.97;;;;;;;;;;6155981;23;20031;-90
2022/03/06 09:49:58;;;;;;;6.05;3.15;;;;;;;;;;6131931;23;20373;-89
2022/03/06 09:52:24;;;;;;;6.43;2.90;;;;;;;;;;6162037;23;20023;-91
2022/03/06 09:54:50;;;;;;;5.38;3.08;;;;;;;;;;6132491;23;20016;-88
2022/03/06 09:57:20;;;;;;;8.52;3.40;;;;;;;;;;6157063;23;20016;-91
2022/03/06 09:59:47;;;;;;;4.25;2.95;;;;;;;;;;6157012;23;20330;-90
2022/03/06 10:02:13;;;;;;;7.53;3.00;;;;;;;;;;6131387;23;20121;-89
2022/03/06 10:04:39;;;;;;;3.50;2.80;;;;;;;;;;6131234;23;20017;-90
2022/03/06 10:07:10;;;;;;;5.22;3.00;;;;;;;;;;6157917;23;20027;-89
2022/03/06 10:09:47;;;;;;;4.13;2.65;;;;;;;;;;6156876;23;20024;-91
2022/03/06 10:12:24;;;;;;;4.07;2.75;;;;;;;;;;6157459;23;20091;-90
2022/03/06 10:14:53;;;;;;;4.85;2.80;;;;;;;;;;6154909;23;20039;-89
2022/03/06 10:17:21;;;;;;;7.55;2.78;;;;;;;;;;6156926;23;20059;-89
2022/03/06 10:19:51;;;;;;;5.22;2.80;;;0.60;99.90;;;;;;6155363;23;20535;-90
2022/03/06 10:22:18;;;;;;;6.30;2.90;;;3.70;89.90;;;;;;6155438;23;20075;-91
2022/03/06 10:24:47;;;;;;;5.22;2.90;;;3.80;87.90;;;;;;6155774;23;20106;-90
2022/03/06 10:27:13;;;;;;;5.85;2.75;;;3.80;85.20;;;;;;6156882;23;20024;-89
2022/03/06 10:29:39;;;;;;;4.82;2.40;;;3.90;86.40;;;;;;6159675;23;20017;-90
2022/03/06 10:32:07;;;;;;;5.68;2.88;;;4.00;86.90;;;;;;6131230;23;20013;-87
2022/03/06 10:34:40;;;;;;;4.20;2.65;;;4.00;86.00;;;;;;6131279;23;20009;-89
2022/03/06 10:37:06;;;;;;;6.80;2.90;;;4.10;84.60;;;;;;6156168;23;20012;-88
2022/03/06 10:39:44;;;;;;;4.40;2.50;;;4.10;84.60;;;;;;6130028;23;20023;-88
2022/03/06 10:42:10;;;;;;;5.18;2.67;;;4.20;82.80;;;;;;6156835;23;20051;-89
2022/03/06 10:44:48;;;;;;;5.13;2.70;;;4.10;80.70;;;;;;6156898;23;20013;-90
2022/03/06 10:47:14;;;;;;;5.97;2.65;;;4.20;81.20;;;;;;6108789;23;20075;-90
2022/03/06 10:49:59;;;;;;;7.65;2.75;;;4.20;79.10;;;;;;6155784;23;20310;-92
2022/03/06 10:52:25;;;;;;;6.53;2.97;;;4.20;76.70;;;;;;6131529;23;20121;-90
2022/03/06 10:54:58;;;;;;;8.02;2.70;;;4.30;79.40;;;;;;6131022;23;20064;-91
2022/03/06 10:57:24;;;;;;;;;;;4.30;77.80;;;;;;6158704;23;20078;-90
2022/03/06 11:00:03;;;;;;;8.18;2.67;;;4.40;76.60;;;;;;6157369;23;19924;-90
2022/03/06 11:02:36;;;;;;;5.53;2.72;;;4.40;79.30;;;;;;6152692;23;20080;-90
2022/03/06 11:05:06;;;;;;;6.70;2.92;;;4.50;78.50;;;;;;6155478;23;20020;-92
2022/03/06 11:07:32;;;;;;;6.18;2.90;;;4.50;78.40;;;;;;6129584;23;20075;-91
2022/03/06 11:09:59;;;;;;;5.47;2.90;;;4.60;80.20;;;;;;6131258;23;20059;-90
2022/03/06 11:12:25;;;;;;;5.70;3.03;;;;;;;;;;6157232;23;20023;-89
2022/03/06 11:14:52;;;;;;;5.15;2.90;;;;;;;;;;6155683;23;20012;-89
2022/03/06 11:17:18;;;;;;;6.05;3.15;;;;;;;;;;6156993;23;20062;-90
2022/03/06 11:19:47;;;;;;;5.45;2.80;;;;;;;;;;6131466;23;20024;-90
2022/03/06 11:22:27;;;;;;;5.97;3.20;;;;;;;;;;6131904;23;20393;-92
2022/03/06 11:24:58;;;;;;;7.38;2.70;;;;;;;;;;6159064;23;20330;-92
2022/03/06 11:27:43;;;;;;;6.03;3.00;;;;;;;;;;6155293;23;20022;-90
2022/03/06 11:30:22;;;;;;;5.60;3.03;;;;;;;;;;6157106;23;20019;-93
2022/03/06 11:32:59;;;;;;;4.78;2.83;;;;;;;;;;6152872;23;20017;-87
2022/03/06 11:35:30;;;;;;;6.10;2.88;;;;;;;;;;6153535;23;20044;-88
2022/03/06 11:37:56;;;;;;;7.53;2.83;;;;;;;;;;6153303;23;20353;-88
2022/03/06 11:40:35;;;;;;;5.47;3.13;;;;;;;;;;6128653;23;20360;-88
2022/03/06 11:43:01;;;;;;;7.10;2.72;;;;;;;;;;6155383;23;20017;-90
2022/03/06 11:45:43;;;;;;;4.90;2.85;;;;;;;;;;6130977;23;20012;-88
2022/03/06 11:51:18;;;;;;;6.72;3.42;;;;;;;;;;6160039;23;20031;-87
2022/03/06 11:54:01;;;;;;;6.75;2.80;;;;;;;;;;6153248;23;20012;-88
2022/03/06 11:56:40;;;;;;;6.30;2.70;;;;;;;;;;6152532;23;20397;-86
2022/03/06 11:59:07;;;;;;;5.88;3.03;;;;;;;;;;6151268;23;20377;-88
2022/03/06 12:01:36;;;;;;;7.85;3.50;;;;;;;;;;6154288;23;20016;-86
2022/03/06 12:04:07;;;;;;;6.10;2.83;;;;;;;;;;6153229;23;20012;-89
2022/03/06 12:06:39;;;;;;;6.63;2.97;;;;;;;;;;6153867;23;20027;-88
2022/03/06 12:09:23;;;;;;;7.95;3.40;;;4.70;79.70;;;;;;6130685;23;20451;-90
2022/03/06 12:11:51;;;;;;;8.23;3.47;;;;;;;;;;6160890;23;20493;-88
2022/03/06 12:14:19;;;;;;;5.47;3.22;;;;;;;;;;6153990;23;20012;-87
2022/03/06 12:17:04;;;;;;;8.15;3.67;;;;;;;;;;6152109;23;20020;-87
2022/03/06 12:19:45;;;;;;;5.53;3.65;;;;;;;;;;6153787;23;20013;-88
2022/03/06 12:22:11;;;;;;;9.55;3.00;;;;;;;;;;6154561;23;20036;-88
2022/03/06 12:24:44;;;;;;;5.28;3.35;;;;;;;;;;6154509;23;20009;-86
2022/03/06 12:27:17;;;;;;;5.70;2.95;;;;;;;;;;6160141;23;20023;-87
2022/03/06 12:29:51;;;;;;;4.82;2.80;;;;;;;;;;6132549;23;20055;-88
2022/03/06 12:32:31;;;;;;;6.40;3.05;;;;;;;;;;6160858;23;20369;-89
2022/03/06 12:34:59;;;;;;;7.28;3.25;;;6.10;72.60;;;;;;6159045;23;20072;-87
2022/03/06 12:37:26;;;;;;;7.57;3.20;;;6.50;70.80;;;;;;6135119;23;20171;-86
2022/03/06 12:39:52;;;;;;;6.28;3.35;;;6.60;71.20;;;;;;6158040;23;20613;-87
2022/03/06 12:42:26;;;;;;;6.63;3.15;;;6.90;71.80;;;;;;6157163;23;20071;-88
2022/03/06 12:44:57;;;;;;;6.80;3.58;;;7.00;71.50;;;;;;6156462;23;20052;-86
2022/03/06 12:47:23;;;;;;;6.40;3.30;;;6.90;70.20;;;;;;6154047;23;20012;-87
2022/03/06 12:49:50;;;;;;;4.63;3.10;;;6.80;70.40;;;;;;6152326;23;20350;-86
2022/03/06 12:52:21;;;;;;;5.15;3.30;;;6.60;70.10;;;;;;6127833;23;20019;-87
2022/03/06 12:54:49;;;;;;;5.43;2.92;;;6.50;70.70;;;;;;6152611;23;20028;-87
2022/03/06 12:57:15;;;;;;;5.53;3.30;;;6.50;71.00;;;;;;6130553;23;20389;-87
2022/03/06 12:59:43;;;;;;;7.93;3.30;;;6.40;70.60;;;;;;6152148;23;20496;-90
2022/03/06 13:02:10;;;;;;;6.25;3.70;;;6.50;71.60;;;;;;6176963;23;20079;-87
2022/03/06 13:04:37;;;;;;;5.38;3.60;;;6.50;71.00;;;;;;6102395;23;20154;-87
2022/03/06 13:07:14;;;;;;;6.10;3.35;;;6.50;70.60;;;;;;6152754;23;20020;-89
2022/03/06 13:09:40;;;;;;;6.32;3.38;;;6.60;71.30;;;;;;6131445;23;20020;-89
2022/03/06 13:12:12;;;;;;;7.72;3.30;;;6.60;70.40;;;;;;6152327;23;20008;-88
2022/03/06 13:14:43;;;;;;;8.68;3.60;;;6.60;70.60;;;;;;6152507;23;20044;-87
2022/03/06 13:17:14;;;;;;;7.05;4.07;;;6.60;70.00;;;;;;6152831;23;20512;-86
2022/03/06 13:19:49;;;;;;;5.60;3.15;;;6.70;70.70;;;;;;6177189;23;20071;-87